Main page
METAR-TAF:

METAR-TAF

Airports :

Kuwait International Airport

Kuwait City, Kuwait

latitude: 29-13N, longitude: 047-59E, elevation: 55 m

Current weather observation

The report was made 6 minutes ago, at 17:00 UTC
Wind 6 kt from the South/Southeast
Temperature 28°C
Humidity 55%
Pressure 1012 hPa
Visibility 10 km or more
no clouds below 1500 m and no cumulonimbus

METAR: OKBK 181700Z 15006KT CAVOK 28/18 Q1012 NOSIG

Time: 20:06 (17:06 UTC)

Forecast

The report was made 6 hours and 21 minutes ago, at 10:45 UTC
Forecast valid from 18 at 12 UTC to 19 at 18 UTC
Wind 8 kt from the East with gusts up to 18 kt
Visibility: 7000 m
Temporary
from 18 at 12 UTC to 18 at 18 UTC
Wind 3 kt from variable directions
Visibility: 3000 m
haze

TAF: OKBK 181045Z 1812/1918 10008G18KT 7000 NSC TEMPO 1812/1818 VRB03KT 3000 HZ

Weather observations and forecasts of more than 4000 airports (METAR and TAF reports).

The available stations are represented by yellow and red dots on the map.

Hover mouse over dot to see the name of the station.

Then click to see weather observations and forecasts.

To change the map : click on the green buttons with a black cross to zoom in, on the green button with a dash to zoom out, or on the green arrows for adjacent maps.


METAR-TAF: